Time;durP1;ratioP1;P1;durP2;ratioP2;P2;SDS_P1;SDS_P2;PMS_P1;PMS_P2;Temp;Humidity;BMP_temperature;BMP_pressure;BME280_temperature;BME280_humidity;BME280_pressure;Samples;Min_cycle;Max_cycle;Signal;HPM_P1;HPM_P2
2022/05/08 00:00:30;;;;;;;9.40;2.10;;;9.20;99.90;;;;;;4807079;29;20061;-71
2022/05/08 00:02:57;;;;;;;9.68;2.28;;;9.20;99.90;;;;;;4808401;29;20051;-70
2022/05/08 00:05:26;;;;;;;12.52;3.28;;;9.40;99.90;;;;;;4808057;29;20062;-71
2022/05/08 00:07:52;;;;;;;13.65;2.25;;;9.20;99.90;;;;;;4806770;29;20043;-71
2022/05/08 00:10:18;;;;;;;8.52;1.83;;;9.30;99.90;;;;;;4822435;29;20058;-71
2022/05/08 00:12:44;;;;;;;12.82;2.78;;;9.30;99.90;;;;;;4807507;29;20116;-71
2022/05/08 00:15:10;;;;;;;9.15;1.67;;;9.30;99.90;;;;;;4808044;29;20508;-71
2022/05/08 00:17:36;;;;;;;11.27;2.03;;;9.30;99.90;;;;;;4807787;29;20535;-72
2022/05/08 00:20:04;;;;;;;12.75;2.33;;;9.30;99.90;;;;;;4808105;29;20059;-71
2022/05/08 00:22:30;;;;;;;7.40;1.92;;;9.30;99.90;;;;;;4807902;29;20059;-71
2022/05/08 00:24:56;;;;;;;13.10;2.47;;;9.30;99.90;;;;;;4806545;29;20407;-72
2022/05/08 00:27:21;;;;;;;8.00;1.55;;;9.20;99.90;;;;;;4807388;29;20395;-71
2022/05/08 00:29:47;;;;;;;11.68;2.08;;;9.20;99.90;;;;;;4807573;29;20058;-71
2022/05/08 00:32:13;;;;;;;9.05;1.95;;;9.20;99.90;;;;;;4807597;29;20050;-71
2022/05/08 00:34:39;;;;;;;10.15;2.15;;;9.20;99.90;;;;;;4822048;29;20047;-72
2022/05/08 00:37:05;;;;;;;7.53;2.08;;;9.20;99.90;;;;;;4806699;29;20043;-71
2022/05/08 00:39:32;;;;;;;9.20;2.50;;;9.20;99.90;;;;;;4807610;29;20057;-72
2022/05/08 00:41:59;;;;;;;7.75;2.00;;;9.10;99.90;;;;;;4806750;29;20065;-71
2022/05/08 00:44:24;;;;;;;10.13;2.47;;;9.10;99.90;;;;;;4806278;29;20482;-71
2022/05/08 00:46:50;;;;;;;12.55;2.20;;;9.10;99.90;;;;;;4807304;29;20134;-72
2022/05/08 00:49:16;;;;;;;12.25;2.10;;;9.00;99.90;;;;;;4807276;29;20116;-71
2022/05/08 00:51:47;;;;;;;11.25;2.40;;;9.00;99.90;;;;;;4807142;29;20088;-71
2022/05/08 00:54:13;;;;;;;9.40;1.88;;;9.00;99.90;;;;;;4807351;29;20046;-72
2022/05/08 00:56:40;;;;;;;7.85;1.83;;;9.00;99.90;;;;;;4807398;29;20054;-72
2022/05/08 00:59:05;;;;;;;9.13;1.98;;;9.00;99.90;;;;;;4806158;29;20105;-71
2022/05/08 01:01:31;;;;;;;15.90;2.13;;;8.90;99.90;;;;;;4806121;29;20500;-72
2022/05/08 01:04:00;;;;;;;11.13;2.10;;;8.90;99.90;;;;;;4807468;29;20050;-71
2022/05/08 01:06:27;;;;;;;11.32;1.80;;;8.90;99.90;;;;;;4806946;29;20073;-72
2022/05/08 01:08:53;;;;;;;11.10;2.63;;;8.90;99.90;;;;;;4806416;29;20058;-71
2022/05/08 01:11:19;;;;;;;11.90;2.25;;;8.90;99.90;;;;;;4806111;29;20574;-71
2022/05/08 01:13:45;;;;;;;9.68;2.25;;;8.80;99.90;;;;;;4821217;29;20051;-71
2022/05/08 01:16:19;;;;;;;10.20;2.17;;;8.90;99.90;;;;;;4806844;29;20081;-72
2022/05/08 01:18:46;;;;;;;8.73;2.75;;;8.80;99.90;;;;;;4806998;29;20055;-72
2022/05/08 01:21:23;;;;;;;12.52;2.63;;;8.70;99.90;;;;;;4807305;29;20067;-72
2022/05/08 01:23:49;;;;;;;11.63;2.15;;;8.70;99.90;;;;;;4806742;29;20097;-71
2022/05/08 01:26:22;;;;;;;8.55;2.30;;;8.70;99.90;;;;;;4806161;29;20089;-72
2022/05/08 01:28:47;;;;;;;9.43;2.17;;;8.60;99.90;;;;;;4806748;29;20072;-72
2022/05/08 01:31:13;;;;;;;12.15;2.70;;;8.60;99.90;;;;;;4790887;29;20159;-72
2022/05/08 01:33:39;;;;;;;8.45;2.35;;;8.60;99.90;;;;;;4821123;29;20043;-71
2022/05/08 01:36:05;;;;;;;8.02;1.92;;;8.50;99.90;;;;;;4806639;29;20051;-71
2022/05/08 01:38:31;;;;;;;7.30;1.98;;;8.40;99.90;;;;;;4790509;29;20046;-72
2022/05/08 01:41:03;;;;;;;8.20;1.83;;;8.60;99.90;;;;;;4806489;29;20133;-72
2022/05/08 01:43:32;;;;;;;12.65;3.33;;;8.40;99.90;;;;;;4806437;29;20055;-72
2022/05/08 01:45:58;;;;;;;9.77;2.55;;;8.20;99.90;;;;;;4806703;29;20065;-71
2022/05/08 01:48:25;;;;;;;9.02;2.17;;;8.20;99.90;;;;;;4805335;29;20057;-72
2022/05/08 01:50:59;;;;;;;8.07;2.10;;;8.20;99.90;;;;;;4806505;29;20488;-71
2022/05/08 01:53:31;;;;;;;13.05;2.85;;;8.10;99.90;;;;;;4805369;29;20131;-71
2022/05/08 01:55:58;;;;;;;9.68;2.78;;;8.10;99.90;;;;;;4805774;29;20051;-72
2022/05/08 01:58:26;;;;;;;7.90;2.40;;;8.00;99.90;;;;;;4805286;29;20392;-72
2022/05/08 02:00:53;;;;;;;10.52;2.38;;;8.00;99.90;;;;;;4820652;29;20065;-72
2022/05/08 02:03:20;;;;;;;11.52;2.33;;;8.00;99.90;;;;;;4806142;29;20054;-72
2022/05/08 02:05:46;;;;;;;8.60;2.13;;;7.90;99.90;;;;;;4820118;29;20050;-72
2022/05/08 02:08:12;;;;;;;8.30;2.67;;;7.80;99.90;;;;;;4806314;29;20090;-72
2022/05/08 02:10:39;;;;;;;8.38;2.70;;;7.80;99.90;;;;;;4805085;29;20051;-72
2022/05/08 02:13:07;;;;;;;11.07;2.35;;;7.80;99.90;;;;;;4806312;29;20050;-72
2022/05/08 02:15:33;;;;;;;7.95;2.85;;;7.80;99.90;;;;;;4820150;29;20408;-72
2022/05/08 02:18:01;;;;;;;10.93;2.30;;;7.80;99.90;;;;;;4820654;29;20465;-71
2022/05/08 02:20:27;;;;;;;6.57;2.30;;;7.70;99.90;;;;;;4804843;29;20122;-72
2022/05/08 02:22:53;;;;;;;12.20;2.75;;;7.70;99.90;;;;;;4805992;29;20110;-72
2022/05/08 02:25:19;;;;;;;9.85;2.72;;;7.70;99.90;;;;;;4804269;29;20043;-72
2022/05/08 02:27:49;;;;;;;13.30;3.00;;;7.70;99.90;;;;;;4804785;29;20063;-71
2022/05/08 02:30:16;;;;;;;8.52;2.40;;;7.60;99.90;;;;;;4790980;29;20192;-72
2022/05/08 02:32:43;;;;;;;9.40;2.22;;;7.30;99.90;;;;;;4806130;29;20571;-72
2022/05/08 02:35:12;;;;;;;9.40;2.30;;;7.90;99.90;;;;;;4806027;29;20094;-72
2022/05/08 02:37:39;;;;;;;9.07;2.13;;;7.50;99.90;;;;;;4819873;29;20551;-72
2022/05/08 02:40:08;;;;;;;6.38;2.17;;;7.50;99.90;;;;;;4806027;29;20047;-72
2022/05/08 02:42:35;;;;;;;7.78;2.25;;;7.40;99.90;;;;;;4806136;29;20050;-72
2022/05/08 02:45:01;;;;;;;7.70;2.13;;;7.40;99.90;;;;;;4806080;29;20134;-72
2022/05/08 02:47:27;;;;;;;9.98;2.80;;;7.40;99.90;;;;;;4819919;29;20043;-71
2022/05/08 02:49:53;;;;;;;8.68;2.15;;;7.70;99.90;;;;;;4819932;29;20055;-72
2022/05/08 02:52:19;;;;;;;10.02;2.35;;;7.40;99.90;;;;;;4804865;29;20108;-71
2022/05/08 02:54:45;;;;;;;8.73;2.55;;;7.40;99.90;;;;;;4805193;29;20507;-72
2022/05/08 02:59:55;;;;;;;10.07;2.40;;;7.30;99.90;;;;;;4804628;29;20088;-72
2022/05/08 03:02:21;;;;;;;7.05;2.35;;;7.40;99.90;;;;;;4819782;29;20051;-72
2022/05/08 03:04:46;;;;;;;7.13;2.25;;;7.10;99.90;;;;;;4805076;29;20070;-71
2022/05/08 03:07:13;;;;;;;9.40;2.47;;;7.30;99.90;;;;;;4804558;29;20081;-72
2022/05/08 03:09:39;;;;;;;6.22;2.42;;;7.20;99.90;;;;;;4804997;29;20057;-71
2022/05/08 03:12:05;;;;;;;9.55;2.53;;;7.20;99.90;;;;;;4805860;29;20133;-72
2022/05/08 03:14:31;;;;;;;9.40;2.75;;;7.20;99.90;;;;;;4804822;29;20067;-71
2022/05/08 03:16:57;;;;;;;9.50;2.20;;;7.20;99.90;;;;;;4807648;29;20479;-71
2022/05/08 03:19:25;;;;;;;8.45;2.53;;;7.60;99.90;;;;;;4792939;29;20082;-72
2022/05/08 03:21:51;;;;;;;8.50;2.25;;;7.20;99.90;;;;;;4823024;29;20055;-71
2022/05/08 03:24:17;;;;;;;8.55;2.17;;;7.20;99.90;;;;;;4808968;29;20111;-72
2022/05/08 03:26:43;;;;;;;9.27;2.47;;;7.50;99.90;;;;;;4807008;29;20047;-72
2022/05/08 03:29:09;;;;;;;6.85;2.08;;;7.10;99.90;;;;;;4808692;29;20058;-72
2022/05/08 03:31:35;;;;;;;8.18;2.88;;;7.20;99.90;;;;;;4808765;29;20047;-72
2022/05/08 03:34:00;;;;;;;8.35;2.35;;;7.10;99.90;;;;;;4808671;29;20058;-72
2022/05/08 03:36:26;;;;;;;8.40;2.30;;;7.20;99.90;;;;;;4822741;29;20122;-71
2022/05/08 03:38:52;;;;;;;9.98;2.40;;;7.10;99.90;;;;;;4808549;29;20057;-72
2022/05/08 03:41:19;;;;;;;7.35;2.38;;;7.10;99.90;;;;;;4807499;29;20054;-71
2022/05/08 03:43:46;;;;;;;7.50;2.22;;;7.20;99.90;;;;;;4807651;29;20055;-71
2022/05/08 03:46:15;;;;;;;9.68;2.50;;;7.10;99.90;;;;;;4807446;29;20093;-72
2022/05/08 03:48:41;;;;;;;7.20;2.10;;;7.10;99.90;;;;;;4807363;29;20061;-72
2022/05/08 03:51:08;;;;;;;8.00;2.15;;;7.10;99.90;;;;;;4808632;29;20047;-72
2022/05/08 03:53:34;;;;;;;9.75;2.70;;;7.40;99.90;;;;;;4808575;29;20050;-72
2022/05/08 03:56:00;;;;;;;6.93;2.35;;;7.10;99.90;;;;;;4807724;29;20138;-72
2022/05/08 03:58:26;;;;;;;13.40;2.60;;;7.10;99.90;;;;;;4822418;29;20146;-72
2022/05/08 04:00:52;;;;;;;6.03;2.10;;;7.10;99.90;;;;;;4808261;29;20055;-72
2022/05/08 04:03:18;;;;;;;8.18;2.45;;;7.10;99.90;;;;;;4822805;29;20108;-72
2022/05/08 04:05:44;;;;;;;7.65;2.38;;;7.10;99.90;;;;;;4808399;29;20408;-72
2022/05/08 04:08:10;;;;;;;8.77;2.50;;;7.10;99.90;;;;;;4792149;29;20051;-72
2022/05/08 04:10:36;;;;;;;6.80;1.98;;;7.10;99.90;;;;;;4807170;29;20050;-71
2022/05/08 04:13:01;;;;;;;7.10;2.17;;;7.00;99.90;;;;;;4807304;29;20098;-72
2022/05/08 04:18:11;;;;;;;7.45;2.95;;;7.10;99.90;;;;;;4807091;29;20071;-71
2022/05/08 04:20:37;;;;;;;6.95;2.35;;;7.00;99.90;;;;;;4806955;29;20050;-72
2022/05/08 04:25:51;;;;;;;6.45;2.00;;;7.10;99.90;;;;;;4807182;29;20055;-72
2022/05/08 04:28:19;;;;;;;7.85;2.30;;;7.10;99.90;;;;;;4807199;29;20101;-72
2022/05/08 04:30:45;;;;;;;5.90;1.90;;;7.10;99.90;;;;;;4822055;29;20431;-72
2022/05/08 04:33:11;;;;;;;8.00;2.45;;;7.10;99.90;;;;;;4791802;29;20053;-72
2022/05/08 04:35:37;;;;;;;4.30;1.75;;;7.10;99.90;;;;;;4791777;29;20055;-72
2022/05/08 04:38:02;;;;;;;5.65;1.80;;;7.10;99.90;;;;;;4806551;29;20090;-72
2022/05/08 04:40:28;;;;;;;7.70;2.28;;;7.20;99.90;;;;;;4791674;29;20042;-72
2022/05/08 04:42:54;;;;;;;8.27;2.35;;;7.20;99.90;;;;;;4806796;29;20062;-72
2022/05/08 04:45:20;;;;;;;6.35;2.33;;;7.20;99.90;;;;;;4807055;29;20112;-71
2022/05/08 04:47:46;;;;;;;5.70;2.47;;;7.20;99.90;;;;;;4821530;29;20055;-71
2022/05/08 04:50:12;;;;;;;5.97;2.05;;;7.30;99.90;;;;;;4806665;29;20053;-71
2022/05/08 04:52:37;;;;;;;6.05;2.15;;;7.20;99.90;;;;;;4821547;29;20119;-71
2022/05/08 04:55:04;;;;;;;6.15;2.47;;;7.30;99.90;;;;;;4790881;29;20141;-72
2022/05/08 04:57:30;;;;;;;4.75;2.08;;;7.30;99.90;;;;;;4807501;29;20123;-71
2022/05/08 04:59:57;;;;;;;5.70;2.10;;;7.40;99.90;;;;;;4806433;29;20142;-72
2022/05/08 05:02:23;;;;;;;5.15;1.77;;;7.40;99.90;;;;;;4806411;29;20057;-72
2022/05/08 05:04:48;;;;;;;5.20;1.67;;;7.50;99.90;;;;;;4807297;29;20466;-72
2022/05/08 05:07:14;;;;;;;7.80;1.83;;;7.60;99.90;;;;;;4806236;29;20457;-72
2022/05/08 05:09:40;;;;;;;6.90;1.23;;;7.70;99.90;;;;;;4791135;29;20129;-72
2022/05/08 05:12:06;;;;;;;4.63;1.30;;;7.80;99.90;;;;;;4807074;29;20119;-71
2022/05/08 05:14:32;;;;;;;4.80;1.30;;;7.90;99.90;;;;;;4791158;29;20047;-72
2022/05/08 05:17:00;;;;;;;6.68;1.23;;;8.00;99.90;;;;;;4821381;29;20509;-71
2022/05/08 05:19:26;;;;;;;4.75;1.13;;;8.60;99.90;;;;;;4807453;29;20129;-72
2022/05/08 05:21:52;;;;;;;5.25;1.08;;;8.30;99.90;;;;;;4805810;29;20483;-71
2022/05/08 05:24:18;;;;;;;6.95;1.17;;;8.30;99.90;;;;;;4806833;29;20046;-71
2022/05/08 05:26:43;;;;;;;5.28;1.20;;;8.30;99.90;;;;;;4806267;29;20085;-72
2022/05/08 05:29:09;;;;;;;5.32;1.00;;;8.40;99.90;;;;;;4806118;29;20063;-72
2022/05/08 05:31:35;;;;;;;6.10;1.00;;;8.50;99.90;;;;;;4805747;29;20059;-72
2022/05/08 05:34:00;;;;;;;7.55;1.20;;;8.50;99.90;;;;;;4806899;29;20512;-71
2022/05/08 05:36:26;;;;;;;5.30;0.98;;;8.60;99.90;;;;;;4806716;29;20058;-72
2022/05/08 05:38:52;;;;;;;4.47;1.38;;;8.70;99.90;;;;;;4820813;29;20059;-72
2022/05/08 05:41:18;;;;;;;8.93;1.05;;;8.80;99.90;;;;;;4790860;29;20503;-72
2022/05/08 05:43:43;;;;;;;4.63;0.95;;;8.90;99.90;;;;;;4806690;29;20054;-72
2022/05/08 05:48:53;;;;;;;4.28;0.80;;;9.10;99.90;;;;;;4805341;29;20099;-72
2022/05/08 05:51:19;;;;;;;4.15;0.73;;;9.20;99.90;;;;;;4806532;29;20515;-72
2022/05/08 05:53:44;;;;;;;11.68;1.30;;;9.30;99.90;;;;;;4806238;29;20054;-72
2022/05/08 05:56:10;;;;;;;4.70;1.20;;;9.40;99.90;;;;;;4805882;29;20055;-72
2022/05/08 05:58:36;;;;;;;6.22;0.80;;;9.50;99.90;;;;;;4806515;29;20055;-72
2022/05/08 06:01:02;;;;;;;6.63;1.00;;;9.50;99.90;;;;;;4805406;29;20061;-72
2022/05/08 06:03:28;;;;;;;6.82;0.82;;;9.70;99.90;;;;;;4806614;29;20073;-71
2022/05/08 06:05:53;;;;;;;5.03;0.82;;;9.70;99.90;;;;;;4790295;29;20129;-72
2022/05/08 06:08:19;;;;;;;4.55;0.90;;;9.80;99.90;;;;;;4805965;29;20050;-72
2022/05/08 06:10:45;;;;;;;8.45;0.90;;;9.80;99.90;;;;;;4820732;29;20061;-72
2022/05/08 06:13:11;;;;;;;7.05;1.33;;;9.80;99.90;;;;;;4806371;29;20094;-72
2022/05/08 06:15:36;;;;;;;4.05;0.80;;;9.90;99.90;;;;;;4806399;29;20078;-72
2022/05/08 06:18:02;;;;;;;6.35;0.80;;;9.90;99.90;;;;;;4806257;29;20065;-73
2022/05/08 06:20:28;;;;;;;2.78;0.60;;;10.00;99.90;;;;;;4806433;29;20054;-72
2022/05/08 06:22:56;;;;;;;7.43;0.68;;;10.10;99.90;;;;;;4820365;29;20047;-72
2022/05/08 06:25:22;;;;;;;3.72;0.73;;;10.10;99.90;;;;;;4805140;29;20104;-72
2022/05/08 06:27:48;;;;;;;4.85;0.95;;;10.20;99.90;;;;;;4805946;29;20423;-72
2022/05/08 06:30:14;;;;;;;6.20;0.98;;;10.20;99.90;;;;;;4806252;29;20130;-72
2022/05/08 06:32:39;;;;;;;5.97;1.00;;;10.30;99.90;;;;;;4806132;29;20050;-72
2022/05/08 06:35:05;;;;;;;4.85;0.63;;;10.40;99.90;;;;;;4805145;29;20107;-72
2022/05/08 06:37:31;;;;;;;7.05;1.13;;;10.70;99.90;;;;;;4805986;29;20051;-72
2022/05/08 06:39:57;;;;;;;4.40;0.88;;;10.40;99.90;;;;;;4806121;29;20129;-73
2022/05/08 06:42:22;;;;;;;5.82;1.10;;;10.40;99.90;;;;;;4820329;29;20050;-72
2022/05/08 06:44:48;;;;;;;4.80;0.85;;;10.50;99.90;;;;;;4805067;29;20054;-71
2022/05/08 06:47:14;;;;;;;3.38;0.65;;;10.50;99.90;;;;;;4805008;29;20050;-72
2022/05/08 06:49:39;;;;;;;5.88;0.90;;;10.60;99.90;;;;;;4819966;29;20134;-72
2022/05/08 06:52:05;;;;;;;4.70;0.82;;;10.60;99.90;;;;;;4808587;29;20115;-72
2022/05/08 06:54:31;;;;;;;5.68;1.00;;;10.70;99.90;;;;;;4808594;29;20059;-72
2022/05/08 06:56:59;;;;;;;4.53;1.02;;;10.70;99.90;;;;;;4823107;29;20373;-73
2022/05/08 07:02:11;;;;;;;6.40;0.93;;;10.80;99.90;;;;;;4809589;29;20516;-72
2022/05/08 07:04:38;;;;;;;6.43;0.88;;;10.80;99.90;;;;;;4809358;29;20050;-72
2022/05/08 07:07:04;;;;;;;6.30;1.00;;;10.90;99.90;;;;;;4809444;29;20089;-73
2022/05/08 07:09:29;;;;;;;6.43;0.95;;;10.90;99.90;;;;;;4810725;29;20208;-73
2022/05/08 07:11:55;;;;;;;3.58;0.90;;;10.90;99.90;;;;;;4815598;29;20043;-72
2022/05/08 07:14:21;;;;;;;4.95;0.80;;;11.00;99.90;;;;;;4809160;29;20404;-72
2022/05/08 07:16:47;;;;;;;6.53;1.00;;;11.00;99.90;;;;;;4807934;29;20086;-72
2022/05/08 07:19:12;;;;;;;3.50;0.70;;;11.00;99.90;;;;;;4822681;29;20094;-74
2022/05/08 07:21:38;;;;;;;4.63;0.85;;;11.10;99.90;;;;;;4808241;29;20053;-73
2022/05/08 07:24:05;;;;;;;5.75;0.95;;;11.10;99.90;;;;;;4793040;29;20055;-72
2022/05/08 07:26:31;;;;;;;5.47;1.48;;;11.20;99.90;;;;;;4808414;29;20046;-73
2022/05/08 07:28:57;;;;;;;7.75;1.10;;;11.20;99.90;;;;;;4808596;29;20523;-73
2022/05/08 07:31:24;;;;;;;2.38;0.70;;;11.10;99.90;;;;;;4807974;29;20086;-73
2022/05/08 07:36:12;;;;;;;5.65;1.00;;;11.10;99.90;;;;;;4808005;29;20453;-72
2022/05/08 07:36:36;;;;;;;7.47;1.20;;;11.00;99.90;;;;;;4804681;29;20550;-72
2022/05/08 07:39:02;;;;;;;3.13;0.77;;;11.00;99.90;;;;;;4819781;29;20057;-73
2022/05/08 07:41:29;;;;;;;5.78;1.10;;;10.90;99.90;;;;;;4774053;29;20054;-75
2022/05/08 07:43:54;;;;;;;3.90;0.88;;;10.90;99.90;;;;;;4792515;29;20623;-75
2022/05/08 07:46:20;;;;;;;4.88;0.88;;;10.90;99.90;;;;;;4809087;29;20054;-75
2022/05/08 07:48:46;;;;;;;3.85;0.70;;;10.90;99.90;;;;;;4806697;29;20055;-75
2022/05/08 07:51:12;;;;;;;5.40;1.13;;;11.00;99.90;;;;;;4822568;29;20054;-78
2022/05/08 07:53:37;;;;;;;5.70;0.90;;;11.00;99.90;;;;;;4810274;29;20101;-77
2022/05/08 07:56:03;;;;;;;4.43;1.08;;;11.00;99.90;;;;;;4813196;29;20081;-80
2022/05/08 07:58:32;;;;;;;5.68;1.00;;;11.00;99.90;;;;;;4818356;29;20046;-78
2022/05/08 08:00:59;;;;;;;5.38;0.95;;;11.00;99.90;;;;;;4800605;29;20054;-78
2022/05/08 08:03:27;;;;;;;4.93;0.80;;;11.10;99.90;;;;;;4807951;29;20950;-79
2022/05/08 08:05:53;;;;;;;3.28;0.73;;;11.20;99.90;;;;;;4808373;29;20057;-79
2022/05/08 08:08:23;;;;;;;7.03;1.00;;;11.30;99.90;;;;;;4811914;29;20046;-73
2022/05/08 08:10:53;;;;;;;7.90;1.10;;;11.30;99.90;;;;;;4812315;29;20133;-73
2022/05/08 08:13:20;;;;;;;7.00;1.10;;;11.40;99.90;;;;;;4809352;29;20891;-72
2022/05/08 08:15:47;;;;;;;7.65;0.93;;;11.40;99.90;;;;;;4810270;29;20058;-73
2022/05/08 08:18:13;;;;;;;5.57;1.13;;;11.40;99.90;;;;;;4808898;29;20133;-72
2022/05/08 08:20:39;;;;;;;5.22;0.90;;;11.40;99.90;;;;;;4813117;29;20054;-73
2022/05/08 08:23:06;;;;;;;2.15;0.82;;;11.40;99.90;;;;;;4813981;29;20090;-71
2022/05/08 08:25:31;;;;;;;4.50;0.98;;;11.30;99.90;;;;;;4809669;29;20063;-73
2022/05/08 08:27:57;;;;;;;5.80;0.73;;;11.30;99.90;;;;;;4805331;29;20062;-73
2022/05/08 08:30:23;;;;;;;4.85;0.77;;;11.30;99.90;;;;;;4810436;29;20467;-72
2022/05/08 08:32:49;;;;;;;5.35;0.90;;;11.30;99.90;;;;;;4813403;29;20554;-72
2022/05/08 08:35:14;;;;;;;4.75;0.73;;;11.40;99.90;;;;;;4811460;29;20054;-71
2022/05/08 08:37:40;;;;;;;7.28;1.00;;;11.40;99.90;;;;;;4807197;29;20048;-75
2022/05/08 08:40:06;;;;;;;3.63;1.23;;;11.50;99.90;;;;;;4805933;29;20054;-78
2022/05/08 08:42:33;;;;;;;7.28;0.88;;;11.50;99.90;;;;;;4804569;29;20103;-80
2022/05/08 08:47:53;;;;;;;7.00;1.10;;;11.60;99.90;;;;;;4807191;29;20066;-79
2022/05/08 08:50:24;;;;;;;10.75;1.63;;;11.70;99.90;;;;;;4812474;29;20804;-78
2022/05/08 08:52:50;;;;;;;3.17;0.90;;;11.70;99.90;;;;;;4809865;29;20118;-79
2022/05/08 08:55:17;;;;;;;4.32;0.90;;;11.70;99.90;;;;;;4797160;29;20127;-79
2022/05/08 08:57:46;;;;;;;7.72;0.98;;;11.80;99.90;;;;;;4811103;29;20042;-75
2022/05/08 09:00:12;;;;;;;3.70;0.80;;;11.80;99.90;;;;;;4825099;29;20053;-73
2022/05/08 09:02:39;;;;;;;4.70;0.93;;;11.90;99.90;;;;;;4802857;29;20742;-77
2022/05/08 09:05:09;;;;;;;6.38;1.20;;;11.90;99.90;;;;;;4812624;29;20099;-77
2022/05/08 09:07:53;;;;;;;9.77;1.25;;;12.00;99.90;;;;;;4810503;29;20065;-79
2022/05/08 09:10:25;;;;;;;3.05;1.00;;;13.60;99.90;;;;;;4818806;29;20101;-74
2022/05/08 09:12:54;;;;;;;7.60;1.02;;;12.20;99.90;;;;;;4810799;29;20058;-75
2022/05/08 09:15:27;;;;;;;4.50;0.82;;;12.40;99.90;;;;;;4812650;29;20042;-77
2022/05/08 09:17:57;;;;;;;6.85;0.80;;;12.40;99.90;;;;;;4811875;29;20153;-74
2022/05/08 09:20:29;;;;;;;4.72;0.90;;;12.30;99.90;;;;;;4807421;29;20050;-76
2022/05/08 09:23:19;;;;;;;6.60;1.00;;;12.40;99.90;;;;;;4810594;29;20046;-73
2022/05/08 09:25:51;;;;;;;4.32;0.88;;;12.40;99.90;;;;;;4812352;29;20051;-74
2022/05/08 09:28:30;;;;;;;7.43;0.90;;;12.50;99.90;;;;;;4807074;29;20423;-72
2022/05/08 09:31:01;;;;;;;8.25;1.10;;;12.60;99.90;;;;;;4810211;29;20062;-72
2022/05/08 09:33:33;;;;;;;7.93;1.23;;;12.50;99.90;;;;;;4810300;29;20057;-73
2022/05/08 09:36:04;;;;;;;4.90;0.90;;;12.40;99.90;;;;;;4807871;29;20261;-74
2022/05/08 09:38:50;;;;;;;8.30;1.00;;;12.40;99.90;;;;;;4814276;29;20046;-74
2022/05/08 09:41:23;;;;;;;4.85;0.90;;;12.30;99.90;;;;;;4813161;29;20066;-74
2022/05/08 09:43:51;;;;;;;5.93;1.02;;;12.40;99.90;;;;;;4811442;29;20057;-72
2022/05/08 09:46:20;;;;;;;8.13;1.35;;;12.40;99.90;;;;;;4812288;29;20050;-72
2022/05/08 09:48:46;;;;;;;6.32;1.45;;;12.40;99.90;;;;;;4816035;29;20055;-73
2022/05/08 09:51:15;;;;;;;8.88;1.30;;;12.40;99.90;;;;;;4815030;29;20084;-73
2022/05/08 09:53:42;;;;;;;5.38;1.00;;;12.40;99.90;;;;;;4814346;29;20181;-73
2022/05/08 09:56:10;;;;;;;5.05;1.10;;;12.40;99.90;;;;;;4813846;29;20050;-72
2022/05/08 09:58:38;;;;;;;7.50;1.25;;;12.50;99.90;;;;;;4811525;29;21256;-74
2022/05/08 10:01:04;;;;;;;7.18;1.02;;;12.50;99.90;;;;;;4809739;29;20515;-73
2022/05/08 10:03:30;;;;;;;6.28;1.00;;;12.60;99.90;;;;;;4795157;29;20060;-73
2022/05/08 10:05:57;;;;;;;7.50;1.50;;;12.60;99.90;;;;;;4813173;29;20048;-74
2022/05/08 10:08:27;;;;;;;4.75;0.88;;;12.60;99.90;;;;;;4812148;29;20398;-73
2022/05/08 10:13:53;;;;;;;5.70;1.08;;;12.80;99.90;;;;;;4810002;29;20073;-73
2022/05/08 10:16:45;;;;;;;6.55;1.08;;;12.80;99.10;;;;;;4815049;29;20046;-71
2022/05/08 10:19:16;;;;;;;6.88;1.05;;;12.90;99.50;;;;;;4806702;29;20050;-74
2022/05/08 10:21:57;;;;;;;5.82;1.50;;;12.90;99.30;;;;;;4811321;29;20486;-72
2022/05/08 10:24:42;;;;;;;9.40;1.10;;;12.90;98.70;;;;;;4810506;29;20452;-71
2022/05/08 10:27:14;;;;;;;4.70;1.20;;;13.00;98.30;;;;;;4812157;29;20051;-73
2022/05/08 10:29:49;;;;;;;6.10;1.05;;;12.90;98.70;;;;;;4809501;29;20059;-73
2022/05/08 10:32:33;;;;;;;4.90;1.00;;;13.00;99.00;;;;;;4810378;29;20117;-72
2022/05/08 10:35:19;;;;;;;8.10;1.17;;;13.00;98.60;;;;;;4814557;29;20389;-72
2022/05/08 10:37:47;;;;;;;8.50;1.63;;;13.00;98.90;;;;;;4808503;29;20090;-75
2022/05/08 10:40:22;;;;;;;4.78;0.80;;;13.00;99.00;;;;;;4792806;29;20087;-72
2022/05/08 10:42:51;;;;;;;3.42;0.90;;;13.00;98.20;;;;;;4811436;29;20137;-72
2022/05/08 10:45:29;;;;;;;4.15;0.98;;;12.90;98.50;;;;;;4805617;29;20050;-72
2022/05/08 10:47:54;;;;;;;6.22;1.00;;;13.00;98.50;;;;;;4814683;29;20043;-73
2022/05/08 10:50:20;;;;;;;4.72;1.10;;;13.10;98.10;;;;;;4809595;29;20594;-75
2022/05/08 10:52:47;;;;;;;7.22;1.02;;;13.10;98.20;;;;;;4809491;29;20106;-74
2022/05/08 10:55:15;;;;;;;5.45;0.90;;;13.20;98.10;;;;;;4806306;29;20054;-73
2022/05/08 10:57:43;;;;;;;7.60;1.08;;;13.20;98.20;;;;;;4813256;29;20038;-72
2022/05/08 11:00:20;;;;;;;5.78;0.93;;;13.20;97.90;;;;;;4812510;29;20107;-73
2022/05/08 11:02:51;;;;;;;5.57;1.00;;;13.30;98.50;;;;;;4808958;29;20050;-73
2022/05/08 11:05:22;;;;;;;8.43;1.25;;;13.30;98.40;;;;;;4804569;29;20085;-73
2022/05/08 11:07:56;;;;;;;6.50;1.20;;;13.40;97.90;;;;;;4809056;29;20137;-73
2022/05/08 11:10:25;;;;;;;7.32;0.90;;;13.40;97.70;;;;;;4803717;29;20050;-74
2022/05/08 11:13:23;;;;;;;6.10;1.05;;;13.40;97.70;;;;;;4794264;29;20054;-74
2022/05/08 11:15:49;;;;;;;3.70;1.13;;;13.50;96.80;;;;;;4792122;29;20081;-72
2022/05/08 11:18:16;;;;;;;5.18;1.00;;;13.40;96.60;;;;;;4810219;29;20125;-71
2022/05/08 11:20:59;;;;;;;6.22;0.93;;;13.30;96.60;;;;;;4795407;29;20494;-73
2022/05/08 11:23:28;;;;;;;6.03;1.10;;;13.30;96.60;;;;;;4812414;29;20113;-72
2022/05/08 11:25:58;;;;;;;6.70;0.90;;;13.40;96.50;;;;;;4807073;29;20373;-72
2022/05/08 11:28:25;;;;;;;5.60;1.10;;;13.40;96.70;;;;;;4808347;29;20070;-71
2022/05/08 11:30:52;;;;;;;6.20;1.10;;;13.40;96.90;;;;;;4811683;29;20057;-72
2022/05/08 11:36:30;;;;;;;4.78;0.80;;;14.10;95.70;;;;;;4811174;29;20050;-75
2022/05/08 11:38:59;;;;;;;7.53;0.98;;;13.50;95.30;;;;;;4811428;29;20376;-74
2022/05/08 11:41:26;;;;;;;5.85;1.20;;;13.60;95.30;;;;;;4814111;29;20072;-72
2022/05/08 11:43:56;;;;;;;5.90;1.27;;;13.60;95.50;;;;;;4813799;29;20054;-74
2022/05/08 11:46:36;;;;;;;5.85;0.93;;;13.70;95.40;;;;;;4815384;29;20080;-71
2022/05/08 11:49:16;;;;;;;6.97;1.10;;;13.70;95.20;;;;;;4810727;29;20551;-74
2022/05/08 11:51:48;;;;;;;7.03;1.10;;;13.70;95.40;;;;;;4816195;29;20057;-73
2022/05/08 11:54:35;;;;;;;3.00;0.88;;;13.80;94.30;;;;;;4811406;29;20050;-74
2022/05/08 11:57:17;;;;;;;6.47;1.20;;;13.70;94.70;;;;;;4814151;29;20061;-74
2022/05/08 11:59:47;;;;;;;3.00;0.77;;;13.70;94.90;;;;;;4797633;29;20671;-74
2022/05/08 12:02:14;;;;;;;5.75;1.20;;;13.80;94.80;;;;;;4815207;29;20452;-74
2022/05/08 12:04:41;;;;;;;4.60;1.45;;;13.80;94.70;;;;;;4809818;29;20046;-74
2022/05/08 12:07:13;;;;;;;7.13;1.00;;;13.80;94.60;;;;;;4810837;29;20055;-73
2022/05/08 12:09:48;;;;;;;8.48;1.33;;;13.80;94.50;;;;;;4797926;29;20050;-73
2022/05/08 12:12:33;;;;;;;4.78;1.00;;;13.80;94.80;;;;;;4800490;29;20060;-74
2022/05/08 12:15:12;;;;;;;4.15;1.52;;;13.80;94.90;;;;;;4812661;29;20076;-73
2022/05/08 12:17:45;;;;;;;4.45;0.85;;;13.80;94.90;;;;;;4812054;29;20288;-73
2022/05/08 12:20:28;;;;;;;3.58;1.33;;;13.80;95.10;;;;;;4818159;29;20055;-74
2022/05/08 12:22:58;;;;;;;;;;;13.80;95.10;;;;;;4815325;29;20390;-74
2022/05/08 12:25:24;;;;;;;5.53;1.00;;;13.80;95.40;;;;;;4811961;29;19939;-72
2022/05/08 12:27:49;;;;;;;4.72;1.13;;;13.90;95.40;;;;;;4815628;29;20042;-72
2022/05/08 12:30:15;;;;;;;8.02;1.25;;;13.90;95.00;;;;;;4811265;29;20053;-73
2022/05/08 12:32:41;;;;;;;6.13;1.00;;;13.90;94.80;;;;;;4826276;29;20118;-72
2022/05/08 12:35:10;;;;;;;4.55;0.82;;;14.00;94.80;;;;;;4826149;29;20058;-72
2022/05/08 12:37:39;;;;;;;4.03;0.98;;;14.00;94.90;;;;;;4840101;29;20051;-72
2022/05/08 12:40:06;;;;;;;5.50;1.05;;;14.10;94.40;;;;;;4825999;29;20145;-72
2022/05/08 12:42:32;;;;;;;5.20;1.00;;;14.10;94.40;;;;;;4824791;29;20050;-72
2022/05/08 12:44:58;;;;;;;3.72;0.90;;;14.20;94.30;;;;;;4825873;29;20054;-73
2022/05/08 12:47:24;;;;;;;5.32;1.00;;;14.20;94.30;;;;;;4825703;29;20047;-73
2022/05/08 12:49:50;;;;;;;5.50;1.05;;;14.20;94.10;;;;;;4824831;29;20050;-71
2022/05/08 12:52:16;;;;;;;5.97;1.13;;;14.10;94.10;;;;;;4825648;29;20054;-71
2022/05/08 12:54:42;;;;;;;3.90;1.70;;;14.20;94.20;;;;;;4825619;29;20419;-72
2022/05/08 12:57:09;;;;;;;6.32;1.25;;;14.10;93.90;;;;;;4825137;29;20050;-73
2022/05/08 12:59:42;;;;;;;5.35;1.02;;;14.10;94.00;;;;;;4819118;29;20050;-73
2022/05/08 13:02:11;;;;;;;9.68;1.20;;;14.20;94.20;;;;;;4816725;29;20054;-72
2022/05/08 13:04:37;;;;;;;2.47;1.25;;;14.20;94.10;;;;;;4825541;29;20089;-72
2022/05/08 13:07:03;;;;;;;5.70;1.00;;;14.20;94.40;;;;;;4809318;29;20510;-72
2022/05/08 13:09:29;;;;;;;6.88;1.13;;;14.30;94.10;;;;;;4824577;29;20055;-72
2022/05/08 13:11:55;;;;;;;5.90;1.52;;;14.30;94.20;;;;;;4825686;29;20563;-74
2022/05/08 13:14:21;;;;;;;5.75;1.00;;;14.30;94.00;;;;;;4824491;29;20092;-73
2022/05/08 13:16:47;;;;;;;5.15;0.98;;;14.20;94.00;;;;;;4827052;29;20050;-71